Time;durP1;ratioP1;P1;durP2;ratioP2;P2;SDS_P1;SDS_P2;PMS_P1;PMS_P2;Temp;Humidity;BMP_temperature;BMP_pressure;BME280_temperature;BME280_humidity;BME280_pressure;Samples;Min_cycle;Max_cycle;Signal;HPM_P1;HPM_P2
2023/12/20 00:00:57;;;;;;;18.27;1.80;;;;;;;6.92;100.00;101171.66;10547974;28;20254;-58
2023/12/20 00:06:19;;;;;;;17.98;1.90;;;;;;;6.88;100.00;101158.84;10555685;28;20108;-58
2023/12/20 00:11:42;;;;;;;14.20;2.35;;;;;;;6.82;100.00;101164.91;10541965;27;20082;-58
2023/12/20 00:17:04;;;;;;;16.40;2.22;;;;;;;6.81;100.00;101162.34;10545643;28;20051;-58
2023/12/20 00:22:25;;;;;;;15.00;2.38;;;;;;;6.77;100.00;101143.53;10551846;28;20043;-58
2023/12/20 00:27:47;;;;;;;14.80;1.90;;;;;;;6.69;100.00;101150.44;10548003;27;20152;-59
2023/12/20 00:33:09;;;;;;;13.85;1.92;;;;;;;6.69;100.00;101142.75;10554770;27;20058;-60
2023/12/20 00:38:31;;;;;;;11.07;1.80;;;;;;;6.69;100.00;101137.59;10549251;27;20058;-58
2023/12/20 00:43:52;;;;;;;18.00;2.30;;;;;;;6.71;100.00;101135.88;10547227;27;20574;-59
2023/12/20 00:49:14;;;;;;;14.88;1.90;;;;;;;6.71;100.00;101146.16;10542027;28;20044;-58
2023/12/20 00:54:38;;;;;;;21.55;2.17;;;;;;;6.73;100.00;101139.28;10526574;27;20486;-58
2023/12/20 00:59:59;;;;;;;17.70;1.90;;;;;;;6.77;100.00;101129.81;10515840;28;20055;-58
2023/12/20 01:05:23;;;;;;;16.80;1.83;;;;;;;6.78;100.00;101127.22;10496132;28;20055;-58
2023/12/20 01:10:46;;;;;;;13.88;2.30;;;;;;;6.79;100.00;101112.66;10524958;28;20054;-58
2023/12/20 01:16:11;;;;;;;12.50;1.85;;;;;;;6.79;100.00;101108.34;10539139;27;20488;-58
2023/12/20 01:21:33;;;;;;;19.45;1.90;;;;;;;6.78;100.00;101113.50;10556843;27;20108;-59
2023/12/20 01:26:54;;;;;;;13.60;2.20;;;;;;;6.75;100.00;101110.97;10549053;28;20051;-58
2023/12/20 01:32:16;;;;;;;10.95;1.50;;;;;;;6.68;100.00;101107.63;10528637;28;20133;-59
2023/12/20 01:37:37;;;;;;;9.13;1.83;;;;;;;6.64;100.00;101092.22;10533620;28;20059;-58
2023/12/20 01:43:08;;;;;;;9.98;1.90;;;;;;;6.59;100.00;101104.28;10550133;28;20044;-59
2023/12/20 01:48:32;;;;;;;12.18;1.75;;;;;;;6.58;100.00;101088.00;10549153;27;20504;-59
2023/12/20 01:53:57;;;;;;;12.38;1.85;;;;;;;6.55;100.00;101093.19;10554184;27;20059;-58
2023/12/20 01:59:20;;;;;;;9.90;1.80;;;;;;;6.56;100.00;101076.88;10540743;28;20153;-60
2023/12/20 02:04:42;;;;;;;15.77;1.90;;;;;;;6.55;100.00;101067.47;10537745;27;20054;-58
2023/12/20 02:10:05;;;;;;;14.70;1.73;;;;;;;6.52;100.00;101072.63;10541166;28;20048;-58
2023/12/20 02:15:26;;;;;;;12.50;1.80;;;;;;;6.55;100.00;101067.47;10536244;28;20067;-59
2023/12/20 02:20:48;;;;;;;14.88;1.88;;;;;;;6.57;100.00;101064.88;10538964;28;20055;-59
2023/12/20 02:26:10;;;;;;;13.75;2.20;;;;;;;6.57;100.00;101059.75;10549391;28;20131;-58
2023/12/20 02:31:32;;;;;;;16.38;2.00;;;;;;;6.62;100.00;101052.81;10538012;28;20051;-59
2023/12/20 02:36:54;;;;;;;10.48;1.73;;;;;;;6.62;100.00;101035.69;10544939;28;20079;-58
2023/12/20 02:42:16;;;;;;;20.73;2.08;;;;;;;6.64;100.00;101039.09;10543716;28;20059;-59
2023/12/20 02:47:37;;;;;;;16.52;1.88;;;;;;;6.67;100.00;101041.63;10542302;27;20899;-59
2023/12/20 02:52:59;;;;;;;14.60;1.90;;;;;;;6.70;100.00;101040.75;10537464;28;20098;-59
2023/12/20 02:58:20;;;;;;;15.02;2.25;;;;;;;6.66;100.00;101029.66;10538521;27;20088;-59
2023/12/20 03:03:42;;;;;;;13.13;1.73;;;;;;;6.71;100.00;101027.88;10535933;28;20112;-60
2023/12/20 03:09:04;;;;;;;19.38;2.22;;;;;;;6.75;100.00;101029.56;10539363;28;20140;-58
2023/12/20 03:14:26;;;;;;;16.15;2.25;;;;;;;6.74;100.00;101016.72;10538997;28;20044;-58
2023/12/20 03:19:47;;;;;;;13.10;1.90;;;;;;;6.79;100.00;101014.94;10538935;28;20407;-58
2023/12/20 03:25:09;;;;;;;18.17;2.38;;;;;;;6.83;100.00;101016.59;10546211;28;20048;-58
2023/12/20 03:30:31;;;;;;;9.10;1.80;;;;;;;6.84;100.00;100992.56;10544043;28;20167;-59
2023/12/20 03:35:52;;;;;;;11.82;2.13;;;;;;;6.87;100.00;101002.81;10544976;28;20056;-58
2023/12/20 03:41:14;;;;;;;16.25;1.92;;;;;;;6.90;100.00;100995.09;10539713;28;20514;-59
2023/12/20 03:46:35;;;;;;;20.15;2.35;;;;;;;6.91;100.00;100984.78;10540147;28;20048;-58
2023/12/20 03:51:57;;;;;;;16.83;2.28;;;;;;;6.91;100.00;100974.47;10533795;28;20135;-58
2023/12/20 03:57:19;;;;;;;17.40;2.03;;;;;;;6.90;100.00;100967.63;10543408;28;20113;-60
2023/12/20 04:02:41;;;;;;;14.27;2.08;;;;;;;6.90;100.00;100970.19;10542005;28;20048;-58
2023/12/20 04:08:04;;;;;;;14.82;1.67;;;;;;;6.90;100.00;100972.75;10542619;28;20058;-58
2023/12/20 04:13:25;;;;;;;17.23;2.55;;;;;;;6.97;100.00;100952.97;10546300;28;20046;-58
2023/12/20 04:18:47;;;;;;;16.30;2.30;;;;;;;6.92;100.00;100957.34;10535630;28;20088;-58
2023/12/20 04:24:08;;;;;;;21.70;2.53;;;;;;;6.90;100.00;100967.63;10551855;28;20389;-59
2023/12/20 04:29:30;;;;;;;22.27;2.47;;;;;;;6.89;100.00;100960.78;10553001;27;20057;-59
2023/12/20 04:34:52;;;;;;;19.48;2.58;;;;;;;6.91;100.00;100974.47;10531582;28;20044;-59
2023/12/20 04:40:13;;;;;;;18.77;2.58;;;;;;;6.94;100.00;100965.88;10549919;28;20050;-58
2023/12/20 04:45:35;;;;;;;23.42;3.17;;;;;;;6.97;100.00;100969.28;10549250;28;20447;-61
2023/12/20 04:50:57;;;;;;;21.67;2.83;;;;;;;6.93;100.00;100947.03;10548132;28;20039;-59
2023/12/20 04:56:19;;;;;;;19.27;2.70;;;;;;;6.97;100.00;100958.13;10543545;28;20051;-59
2023/12/20 05:01:41;;;;;;;24.80;2.90;;;;;;;6.95;100.00;100940.13;10550207;27;20055;-58
2023/12/20 05:07:04;;;;;;;22.23;2.67;;;;;;;6.98;100.00;100941.81;10550214;28;20100;-58
2023/12/20 05:12:26;;;;;;;17.65;2.63;;;;;;;6.99;100.00;100936.66;10543579;27;20043;-58
2023/12/20 05:17:48;;;;;;;21.55;3.28;;;;;;;6.97;100.00;100932.41;10545295;27;20043;-58
2023/12/20 05:23:11;;;;;;;19.52;3.40;;;;;;;7.03;100.00;100940.03;10549864;27;20109;-60
2023/12/20 05:28:34;;;;;;;16.58;2.67;;;;;;;7.04;100.00;100939.16;10540926;28;20055;-58
2023/12/20 05:33:56;;;;;;;21.25;3.15;;;;;;;7.03;100.00;100927.19;10544916;28;20373;-58
2023/12/20 05:39:17;;;;;;;28.13;3.53;;;;;;;7.14;100.00;100926.13;10538415;27;20138;-59
2023/12/20 05:44:39;;;;;;;20.73;2.97;;;;;;;7.09;100.00;100925.34;10543117;28;20047;-60
2023/12/20 05:50:01;;;;;;;30.63;3.85;;;;;;;7.18;100.00;100926.09;10542703;28;20407;-58
2023/12/20 05:55:22;;;;;;;39.60;4.00;;;;;;;7.13;100.00;100923.59;10547000;28;20428;-58
2023/12/20 06:00:44;;;;;;;26.20;3.92;;;;;;;7.18;100.00;100920.97;10550495;28;20914;-58
2023/12/20 06:06:07;;;;;;;30.38;4.13;;;;;;;7.22;100.00;100914.88;10537224;28;20035;-59
2023/12/20 06:11:37;;;;;;;26.75;3.78;;;;;;;7.23;100.00;100909.72;10547531;27;20040;-59
2023/12/20 06:16:59;;;;;;;28.55;3.47;;;;;;;7.27;100.00;100905.38;10538766;28;20369;-58
2023/12/20 06:22:20;;;;;;;26.15;3.45;;;;;;;7.24;100.00;100889.97;10537580;28;20565;-58
2023/12/20 06:27:42;;;;;;;19.95;3.13;;;;;;;7.23;100.00;100881.41;10539859;27;20048;-58
2023/12/20 06:33:06;;;;;;;22.10;3.40;;;;;;;7.26;100.00;100883.94;10544123;28;20074;-58
2023/12/20 06:38:28;;;;;;;29.60;3.65;;;;;;;7.28;100.00;100878.75;10539248;27;20052;-60
2023/12/20 06:43:52;;;;;;;29.75;4.10;;;;;;;7.25;100.00;100871.09;10538854;27;20496;-59
2023/12/20 06:49:14;;;;;;;23.55;3.40;;;;;;;7.30;100.00;100864.16;10539351;28;20135;-58
2023/12/20 06:54:36;;;;;;;23.63;4.07;;;;;;;7.30;100.00;100854.72;10544723;28;20040;-58
2023/12/20 06:59:58;;;;;;;29.00;4.03;;;;;;;7.33;100.00;100864.09;10550269;28;20051;-58
2023/12/20 07:05:19;;;;;;;27.40;3.38;;;;;;;7.35;100.00;100857.19;10539416;28;20047;-59
2023/12/20 07:10:41;;;;;;;37.78;5.03;;;;;;;7.31;100.00;100851.25;10546077;28;20056;-58
2023/12/20 07:16:03;;;;;;;33.97;4.32;;;;;;;7.35;100.00;100846.91;10545920;28;20040;-58
2023/12/20 07:21:25;;;;;;;32.75;4.40;;;;;;;7.34;100.00;100850.34;10529959;28;20434;-59
2023/12/20 07:26:47;;;;;;;26.85;3.95;;;;;;;7.36;100.00;100849.44;10536319;28;20054;-58
2023/12/20 07:32:08;;;;;;;28.10;3.80;;;;;;;7.40;100.00;100834.81;10556577;28;20549;-58
2023/12/20 07:37:30;;;;;;;27.80;3.95;;;;;;;7.39;100.00;100830.53;10538935;28;20064;-58
2023/12/20 07:42:51;;;;;;;26.48;3.78;;;;;;;7.43;100.00;100830.47;10539378;28;20054;-59
2023/12/20 07:48:13;;;;;;;21.85;3.15;;;;;;;7.53;100.00;100821.69;10536216;28;20532;-58
2023/12/20 07:53:35;;;;;;;25.50;3.47;;;;;;;7.59;100.00;100828.47;10542476;28;20066;-59
2023/12/20 07:58:57;;;;;;;29.50;3.72;;;;;;;7.57;100.00;100822.47;10543022;27;20039;-59
2023/12/20 08:04:21;;;;;;;22.35;3.22;;;;;;;7.63;100.00;100830.09;10536831;28;20056;-59
2023/12/20 08:09:43;;;;;;;20.85;3.70;;;;;;;7.61;100.00;100824.13;10518296;27;20127;-58
2023/12/20 08:15:06;;;;;;;32.75;4.10;;;;;;;7.63;100.00;100817.22;10544528;28;20143;-59
2023/12/20 08:20:27;;;;;;;27.55;3.88;;;;;;;7.63;100.00;100812.09;10540671;28;20070;-59
2023/12/20 08:26:07;;;;;;;25.40;4.13;;;;;;;7.57;100.00;100796.75;10546189;28;20046;-59
2023/12/20 08:31:29;;;;;;;35.28;3.97;;;;;;;7.65;100.00;100805.19;10542893;28;20052;-60
2023/12/20 08:36:53;;;;;;;24.77;4.13;;;;;;;7.65;100.00;100805.19;10563116;28;20139;-60
2023/12/20 08:42:15;;;;;;;32.80;4.38;;;;;;;7.63;100.00;100807.78;10541313;27;20050;-59
2023/12/20 08:47:37;;;;;;;24.02;3.65;;;;;;;7.60;100.00;100794.94;10543747;28;20496;-59
2023/12/20 08:52:58;;;;;;;30.45;4.18;;;;;;;7.60;100.00;100799.28;10540814;28;20051;-59
2023/12/20 08:58:20;;;;;;;31.20;3.65;;;;;;;7.61;100.00;100786.38;10541561;27;20158;-59
2023/12/20 09:03:42;;;;;;;29.38;4.32;;;;;;;7.62;100.00;100766.59;10538785;28;20062;-60
2023/12/20 09:09:03;;;;;;;33.90;4.25;;;;;;;7.64;100.00;100764.84;10544649;28;20047;-59
2023/12/20 09:14:26;;;;;;;24.90;4.03;;;;;;;7.74;100.00;100749.22;10535114;28;20039;-59
2023/12/20 09:19:47;;;;;;;30.92;5.35;;;;;;;7.77;100.00;100866.75;10544906;27;20052;-59
2023/12/20 09:25:10;;;;;;;7.72;2.40;;;;;;;6.93;100.00;100880.16;10539494;27;20047;-58
2023/12/20 09:30:33;;;;;;;7.05;1.25;;;;;;;6.50;100.00;100888.47;10534055;28;20048;-60
2023/12/20 09:35:54;;;;;;;4.15;0.98;;;;;;;6.23;100.00;100884.50;10539727;28;20418;-60
2023/12/20 09:41:16;;;;;;;11.02;1.00;;;;;;;5.99;100.00;100884.75;10543557;28;20054;-60
2023/12/20 09:46:49;;;;;;;5.55;0.80;;;;;;;5.92;100.00;100888.25;10520595;28;20050;-59
2023/12/20 09:52:11;;;;;;;3.83;0.88;;;;;;;5.94;100.00;100881.41;10540311;27;20056;-59
2023/12/20 09:57:33;;;;;;;5.32;0.95;;;;;;;5.96;100.00;100856.56;10539002;28;20071;-59
2023/12/20 10:02:59;;;;;;;9.98;1.17;;;;;;;6.02;100.00;100874.47;10543658;28;20055;-60
2023/12/20 10:08:22;;;;;;;7.43;1.10;;;;;;;6.03;100.00;100876.16;10543716;27;20101;-60
2023/12/20 10:13:47;;;;;;;7.40;1.48;;;;;;;6.10;100.00;100898.34;10543860;27;20463;-60
2023/12/20 10:19:08;;;;;;;8.30;1.27;;;;;;;6.11;100.00;100892.34;10544890;28;20066;-59
2023/12/20 10:24:30;;;;;;;8.18;1.50;;;;;;;6.20;100.00;100910.22;10527672;27;20058;-60
2023/12/20 10:29:53;;;;;;;12.85;1.40;;;;;;;6.25;100.00;100908.44;10546124;28;20495;-59
2023/12/20 10:35:14;;;;;;;7.43;1.20;;;;;;;6.30;100.00;100886.13;10545654;27;20043;-60
2023/12/20 10:40:36;;;;;;;11.77;1.60;;;;;;;6.34;100.00;100880.09;10541330;28;20044;-59
2023/12/20 10:45:59;;;;;;;10.95;1.58;;;;;;;6.46;100.00;100882.53;10537427;28;20051;-59
2023/12/20 10:51:22;;;;;;;8.80;1.48;;;;;;;6.53;100.00;100873.84;10537801;28;20510;-59
2023/12/20 10:56:51;;;;;;;16.55;1.90;;;;;;;6.62;100.00;100884.00;10533255;28;20078;-59
2023/12/20 11:02:13;;;;;;;12.25;1.38;;;;;;;6.75;100.00;100865.00;10541748;28;20109;-59
2023/12/20 11:07:47;;;;;;;7.65;1.55;;;;;;;6.81;100.00;100853.75;10545664;28;20052;-59
2023/12/20 11:13:16;;;;;;;8.32;1.20;;;;;;;6.94;100.00;100861.25;10532822;28;20132;-59
2023/12/20 11:18:40;;;;;;;13.52;1.67;;;;;;;7.02;100.00;100856.00;10544374;28;20063;-59
2023/12/20 11:24:03;;;;;;;13.13;1.73;;;;;;;7.09;100.00;100840.44;10535372;28;20052;-59
2023/12/20 11:29:37;;;;;;;11.55;1.70;;;;;;;7.10;100.00;100842.13;10539548;28;20048;-59
2023/12/20 11:35:01;;;;;;;16.60;1.92;;;;;;;7.11;100.00;100838.72;10550134;27;20134;-59
2023/12/20 11:40:25;;;;;;;17.35;2.63;;;;;;;7.19;100.00;100835.16;10552993;27;20063;-59
2023/12/20 11:45:51;;;;;;;13.23;2.13;;;;;;;7.30;100.00;100862.44;10544681;28;20052;-59
2023/12/20 11:51:13;;;;;;;20.58;4.55;;;;;;;7.31;100.00;100837.56;10532288;27;20047;-59
2023/12/20 11:56:36;;;;;;;19.77;1.85;;;;;;;7.41;100.00;100826.22;10539487;28;20040;-59
2023/12/20 12:02:00;;;;;;;16.83;2.30;;;;;;;7.51;100.00;100832.91;10540566;28;20055;-59
2023/12/20 12:07:23;;;;;;;18.30;2.28;;;;;;;7.58;100.00;100830.19;10550389;28;20391;-59
2023/12/20 12:12:45;;;;;;;18.33;2.60;;;;;;;7.62;100.00;100836.97;10549560;28;20587;-59
2023/12/20 12:18:07;;;;;;;22.73;2.53;;;;;;;7.69;100.00;100828.25;10552227;28;20052;-60
2023/12/20 12:23:29;;;;;;;24.55;2.42;;;;;;;7.80;100.00;100833.22;10552650;27;20047;-59
2023/12/20 12:28:50;;;;;;;16.73;2.75;;;;;;;7.78;100.00;100822.94;10544944;28;20472;-59
2023/12/20 12:34:12;;;;;;;26.77;3.25;;;;;;;7.72;100.00;100840.25;10530215;28;20480;-60
2023/12/20 12:39:34;;;;;;;14.48;2.00;;;;;;;7.38;100.00;100837.41;10537654;28;20403;-60
2023/12/20 12:44:56;;;;;;;20.25;2.42;;;;;;;7.25;100.00;100841.06;10545601;28;20051;-60
2023/12/20 12:50:17;;;;;;;16.60;1.88;;;;;;;7.19;100.00;100832.59;10549970;28;20048;-60
2023/12/20 12:55:39;;;;;;;21.92;2.90;;;;;;;7.20;100.00;100832.56;10540336;28;20127;-60
2023/12/20 13:01:01;;;;;;;22.05;3.45;;;;;;;7.35;100.00;100813.44;10542219;28;20523;-59
2023/12/20 13:06:24;;;;;;;18.35;2.22;;;;;;;7.43;100.00;100809.00;10545000;27;20047;-60
2023/12/20 13:11:46;;;;;;;18.50;2.78;;;;;;;7.46;100.00;100824.41;10537783;28;20051;-60
2023/12/20 13:17:08;;;;;;;17.00;2.35;;;;;;;7.49;100.00;100822.63;10542886;28;20050;-59
2023/12/20 13:22:29;;;;;;;18.10;2.53;;;;;;;7.56;100.00;100828.53;10544209;28;20048;-60
2023/12/20 13:27:51;;;;;;;14.57;2.15;;;;;;;7.52;100.00;100826.88;10532595;27;20052;-60
2023/12/20 13:33:13;;;;;;;17.15;2.50;;;;;;;7.52;100.00;100824.31;10532139;27;20047;-60
2023/12/20 13:38:34;;;;;;;16.67;2.35;;;;;;;7.52;100.00;100824.31;10543570;27;20079;-60
2023/12/20 13:43:56;;;;;;;20.23;3.13;;;;;;;7.52;100.00;100824.31;10537627;28;20061;-59
2023/12/20 13:49:17;;;;;;;17.27;2.55;;;;;;;7.49;100.00;100814.88;10547736;27;20035;-61
2023/12/20 13:54:39;;;;;;;15.18;2.28;;;;;;;7.48;100.00;100815.78;10539036;27;20113;-61
2023/12/20 14:00:01;;;;;;;16.20;2.65;;;;;;;7.46;100.00;100803.81;10545964;28;20058;-61
2023/12/20 14:05:23;;;;;;;16.67;2.63;;;;;;;7.48;100.00;100799.47;10541417;27;20052;-61
2023/12/20 14:10:50;;;;;;;13.73;2.30;;;;;;;7.44;100.00;100800.41;10527207;28;20083;-61
2023/12/20 14:16:12;;;;;;;16.48;2.80;;;;;;;7.50;100.00;100798.59;10533134;28;20048;-61
2023/12/20 14:21:34;;;;;;;20.35;2.70;;;;;;;7.50;99.41;100798.59;10540540;27;20051;-60
2023/12/20 14:26:55;;;;;;;15.77;2.90;;;;;;;7.54;98.79;100795.09;10540499;28;20083;-62
2023/12/20 14:32:17;;;;;;;16.85;2.63;;;;;;;7.50;100.00;100805.44;10541356;28;20060;-61
2023/12/20 14:37:40;;;;;;;19.83;2.30;;;;;;;7.51;99.83;100796.88;10536663;28;20058;-60
2023/12/20 14:43:04;;;;;;;14.23;2.67;;;;;;;7.52;100.00;100803.69;10533358;27;20055;-62
2023/12/20 14:48:27;;;;;;;11.80;2.05;;;;;;;7.48;100.00;100784.03;10545311;28;20047;-61
2023/12/20 14:53:49;;;;;;;12.68;2.20;;;;;;;7.48;100.00;100796.91;10523287;28;20044;-60
2023/12/20 14:59:10;;;;;;;16.55;2.28;;;;;;;7.47;100.00;100782.34;10540451;28;20112;-61
2023/12/20 15:04:32;;;;;;;16.63;2.47;;;;;;;7.46;100.00;100775.50;10532030;28;20504;-61
2023/12/20 15:09:54;;;;;;;16.60;2.22;;;;;;;7.50;100.00;100780.56;10535855;28;20063;-61
2023/12/20 15:15:15;;;;;;;17.35;2.05;;;;;;;7.46;100.00;100799.50;10531492;28;20044;-61
2023/12/20 15:20:37;;;;;;;17.45;2.47;;;;;;;7.40;100.00;100773.03;10526890;28;20056;-61
2023/12/20 15:25:59;;;;;;;13.30;2.35;;;;;;;7.35;100.00;100774.81;10531063;28;20080;-61
2023/12/20 15:31:26;;;;;;;16.88;2.78;;;;;;;7.32;100.00;100790.34;10542595;28;20052;-61
2023/12/20 15:36:48;;;;;;;12.13;2.53;;;;;;;7.32;100.00;100795.47;10537108;28;20040;-61
2023/12/20 15:42:09;;;;;;;16.98;2.22;;;;;;;7.29;100.00;100785.25;10535807;28;20039;-60
2023/12/20 15:47:31;;;;;;;12.68;2.13;;;;;;;7.32;100.00;100785.19;10527900;28;20058;-61
2023/12/20 15:52:53;;;;;;;11.00;2.20;;;;;;;7.32;100.00;100790.34;10539983;28;20559;-61
2023/12/20 15:58:15;;;;;;;8.45;1.90;;;;;;;7.35;100.00;100795.41;10551846;28;20042;-61
2023/12/20 16:03:36;;;;;;;12.48;1.95;;;;;;;7.25;100.00;100778.47;10540345;28;20105;-62
2023/12/20 16:09:07;;;;;;;7.00;1.70;;;;;;;7.19;100.00;100769.13;10537218;28;20051;-61
2023/12/20 16:14:29;;;;;;;10.52;1.52;;;;;;;7.12;100.00;100778.66;10526485;28;20055;-60
2023/12/20 16:19:51;;;;;;;10.27;1.70;;;;;;;7.07;100.00;100780.47;10543947;27;20052;-61
2023/12/20 16:25:13;;;;;;;8.15;1.70;;;;;;;7.06;100.00;100773.63;10548300;28;20036;-61
2023/12/20 16:30:35;;;;;;;9.40;1.65;;;;;;;7.05;100.00;100777.06;10537493;27;20485;-60
2023/12/20 16:35:57;;;;;;;5.00;1.30;;;;;;;7.05;100.00;100774.50;10557529;28;20047;-61
2023/12/20 16:41:19;;;;;;;9.90;1.50;;;;;;;6.98;100.00;100783.19;10545800;27;20051;-61
2023/12/20 16:46:41;;;;;;;10.63;1.77;;;;;;;6.99;100.00;100755.75;10526143;28;20046;-61
2023/12/20 16:52:03;;;;;;;13.32;2.00;;;;;;;6.95;100.00;100749.81;10542254;28;20070;-61
2023/12/20 16:57:26;;;;;;;7.63;1.50;;;;;;;6.95;100.00;100754.94;10542043;28;20503;-61
2023/12/20 17:02:48;;;;;;;7.00;1.40;;;;;;;6.99;100.00;100750.59;10538239;28;20053;-60
2023/12/20 17:08:10;;;;;;;10.00;1.90;;;;;;;6.98;100.00;100729.16;10537460;28;20048;-61
2023/12/20 17:13:31;;;;;;;11.45;1.67;;;;;;;6.98;100.00;100729.16;10543415;27;20142;-60
2023/12/20 17:18:53;;;;;;;7.95;1.95;;;;;;;7.00;100.00;100717.13;10541348;28;20419;-60
2023/12/20 17:24:15;;;;;;;10.13;1.95;;;;;;;6.98;100.00;100718.88;10538101;28;20085;-60
2023/12/20 17:29:36;;;;;;;9.90;1.95;;;;;;;6.95;100.00;100708.66;10543997;27;20491;-60
2023/12/20 17:34:58;;;;;;;9.15;1.98;;;;;;;6.91;100.00;100691.56;10536306;27;20047;-60
2023/12/20 17:40:19;;;;;;;7.38;1.50;;;;;;;6.88;100.00;100686.50;10538797;28;20074;-60
2023/12/20 17:45:41;;;;;;;10.05;1.77;;;;;;;6.90;100.00;100674.44;10539621;28;20036;-60
2023/12/20 17:51:03;;;;;;;21.60;2.33;;;;;;;6.88;100.00;100667.63;10530915;28;20066;-59
2023/12/20 17:56:25;;;;;;;9.30;2.40;;;;;;;6.84;100.00;100656.56;10532531;28;20063;-60
2023/12/20 18:01:46;;;;;;;23.27;2.80;;;;;;;6.86;100.00;100649.66;10532272;27;20052;-60
2023/12/20 18:07:09;;;;;;;9.02;2.28;;;;;;;6.89;100.00;100646.16;10538240;27;20048;-60
2023/12/20 18:12:30;;;;;;;16.83;2.65;;;;;;;6.86;100.00;100620.53;10537715;28;20044;-60
2023/12/20 18:17:52;;;;;;;12.38;2.58;;;;;;;6.87;100.00;100623.06;10538781;28;20047;-60
2023/12/20 18:23:14;;;;;;;13.77;2.60;;;;;;;6.92;100.00;100610.13;10536464;28;20051;-60
2023/12/20 18:28:36;;;;;;;14.30;2.40;;;;;;;6.93;100.00;100583.53;10545449;28;20047;-60
2023/12/20 18:33:58;;;;;;;12.32;2.72;;;;;;;6.95;100.00;100574.91;10524852;28;20052;-60
2023/12/20 18:39:20;;;;;;;16.10;2.60;;;;;;;6.93;100.00;100550.94;10517486;28;20066;-60
2023/12/20 18:44:42;;;;;;;18.77;3.40;;;;;;;6.95;100.00;100544.06;10535670;28;20414;-60
2023/12/20 18:50:07;;;;;;;8.80;2.78;;;;;;;6.95;100.00;100531.19;10522214;28;20510;-60
2023/12/20 18:55:29;;;;;;;13.80;3.08;;;;;;;6.99;100.00;100519.97;10531337;28;20039;-60
2023/12/20 19:00:51;;;;;;;18.55;3.50;;;;;;;6.99;100.00;100499.41;10538369;28;20142;-60
2023/12/20 19:06:13;;;;;;;19.60;3.80;;;;;;;7.04;100.00;100486.41;10537659;28;20058;-60
2023/12/20 19:11:34;;;;;;;21.67;3.92;;;;;;;7.09;100.00;100458.88;10533889;28;20401;-60
2023/12/20 19:16:58;;;;;;;19.27;4.57;;;;;;;7.17;100.00;100454.41;10523320;28;20040;-58
2023/12/20 19:22:20;;;;;;;15.23;4.80;;;;;;;7.24;100.00;100432.81;10525330;28;20047;-59
2023/12/20 19:27:43;;;;;;;23.27;5.43;;;;;;;7.35;100.00;100419.69;10532957;28;20207;-59
2023/12/20 19:33:05;;;;;;;22.45;6.03;;;;;;;7.40;100.00;100394.69;10533106;28;20063;-60
2023/12/20 19:38:26;;;;;;;22.23;6.00;;;;;;;7.49;100.00;100376.47;10533870;28;20047;-60
2023/12/20 19:43:48;;;;;;;17.63;5.63;;;;;;;7.59;100.00;100373.59;10540251;28;20055;-60
2023/12/20 19:49:10;;;;;;;19.63;6.07;;;;;;;7.63;100.00;100361.50;10531893;28;20514;-61
2023/12/20 19:54:32;;;;;;;15.18;5.55;;;;;;;7.69;100.00;100339.00;10536762;28;20149;-60
2023/12/20 19:59:54;;;;;;;15.93;5.38;;;;;;;7.72;100.00;100338.09;10530864;27;20172;-61
2023/12/20 20:05:15;;;;;;;14.07;5.60;;;;;;;7.82;100.00;100317.19;10536360;28;20127;-61
2023/12/20 20:10:38;;;;;;;11.45;4.38;;;;;;;7.88;100.00;100306.72;10540254;28;20052;-60
2023/12/20 20:15:59;;;;;;;7.60;3.65;;;;;;;8.01;100.00;100304.66;10531765;28;20043;-61
2023/12/20 20:21:21;;;;;;;11.80;3.88;;;;;;;8.06;100.00;100289.91;10537004;27;20064;-61
2023/12/20 20:26:42;;;;;;;8.20;3.50;;;;;;;8.11;100.00;100294.03;10542525;28;20051;-61
2023/12/20 20:32:05;;;;;;;6.00;3.30;;;;;;;8.18;100.00;100287.81;10533448;28;20059;-60
2023/12/20 20:37:27;;;;;;;4.60;2.80;;;;;;;8.27;100.00;100278.16;10555775;27;20043;-60
2023/12/20 20:42:48;;;;;;;4.70;2.70;;;;;;;8.29;100.00;100279.81;10531983;28;20143;-60
2023/12/20 20:48:10;;;;;;;3.70;2.00;;;;;;;8.33;100.00;100260.81;10540912;28;20056;-60
2023/12/20 20:53:48;;;;;;;3.90;1.95;;;;;;;8.42;100.00;100251.94;10551888;27;20388;-60
2023/12/20 20:59:19;;;;;;;2.60;2.05;;;;;;;8.45;100.00;100226.91;10538846;28;20040;-60
2023/12/20 21:04:40;;;;;;;2.92;2.00;;;;;;;8.51;100.00;100213.84;10533355;28;20044;-59
2023/12/20 21:10:02;;;;;;;2.25;1.60;;;;;;;8.64;100.00;100207.41;10518167;27;20504;-60
2023/12/20 21:15:24;;;;;;;2.33;1.48;;;;;;;8.64;100.00;100198.81;10534857;27;20589;-60
2023/12/20 21:20:47;;;;;;;2.85;1.40;;;;;;;8.66;100.00;100209.91;10531740;27;20048;-60
2023/12/20 21:26:10;;;;;;;1.50;1.40;;;;;;;8.75;100.00;100212.19;10534348;28;20046;-60
2023/12/20 21:31:32;;;;;;;1.50;1.40;;;;;;;8.81;100.00;100223.16;10523998;28;20138;-61
2023/12/20 21:36:54;;;;;;;1.52;1.17;;;;;;;8.81;100.00;100211.97;10541025;28;20043;-60
2023/12/20 21:42:16;;;;;;;1.67;1.20;;;;;;;8.83;100.00;100226.53;10543345;27;20142;-60
2023/12/20 21:47:38;;;;;;;0.90;0.90;;;;;;;8.88;100.00;100214.31;10544357;28;20063;-61
2023/12/20 21:52:59;;;;;;;0.80;0.80;;;;;;;8.86;100.00;100207.53;10527865;28;20043;-61
2023/12/20 21:58:21;;;;;;;1.15;0.85;;;;;;;8.90;100.00;100204.78;10540521;28;20039;-61
2023/12/20 22:03:43;;;;;;;4.25;0.90;;;;;;;8.95;100.00;100208.03;10531810;28;20044;-61
2023/12/20 22:09:04;;;;;;;2.80;0.93;;;;;;;9.00;100.00;100210.50;10536112;28;20461;-61
2023/12/20 22:14:28;;;;;;;0.93;0.85;;;;;;;9.01;100.00;100202.69;10539189;28;20059;-62
2023/12/20 22:19:50;;;;;;;2.42;1.17;;;;;;;9.05;100.00;100201.69;10536524;27;20048;-60
2023/12/20 22:25:12;;;;;;;5.80;1.30;;;;;;;9.10;100.00;100194.63;10541218;28;20124;-60
2023/12/20 22:30:34;;;;;;;5.65;1.70;;;;;;;9.14;100.00;100183.31;10533097;28;20414;-61
2023/12/20 22:35:55;;;;;;;4.60;1.92;;;;;;;9.19;100.00;100174.56;10535693;27;20047;-61
2023/12/20 22:41:17;;;;;;;8.10;2.00;;;;;;;9.20;100.00;100171.09;10537002;28;20040;-60
2023/12/20 22:46:40;;;;;;;8.32;2.10;;;;;;;9.25;100.00;100153.72;10533162;28;20040;-61
2023/12/20 22:52:02;;;;;;;7.53;2.20;;;;;;;9.28;100.00;100151.03;10540993;27;20048;-61
2023/12/20 22:57:24;;;;;;;12.85;2.47;;;;;;;9.35;100.00;100149.91;10534906;28;20140;-60
2023/12/20 23:02:45;;;;;;;9.10;2.45;;;;;;;9.39;100.00;100144.59;10531798;28;20047;-61
2023/12/20 23:08:07;;;;;;;9.95;2.58;;;;;;;9.41;100.00;100136.78;10523687;28;20071;-60
2023/12/20 23:13:29;;;;;;;9.95;2.17;;;;;;;9.45;100.00;100138.34;10536545;28;20066;-60
2023/12/20 23:18:51;;;;;;;8.15;2.40;;;;;;;9.48;100.00;100122.75;10532923;28;20040;-60
2023/12/20 23:24:12;;;;;;;11.57;2.03;;;;;;;9.49;100.00;100145.06;10539998;28;20051;-60
2023/12/20 23:29:36;;;;;;;7.57;1.75;;;;;;;9.48;100.00;100120.16;10540437;27;20062;-60
2023/12/20 23:34:58;;;;;;;14.95;2.35;;;;;;;9.51;100.00;100125.19;10533454;27;20056;-60
2023/12/20 23:40:33;;;;;;;12.90;2.50;;;;;;;9.57;100.00;100137.91;10550560;27;20043;-60
2023/12/20 23:45:55;;;;;;;14.30;2.58;;;;;;;9.55;100.00;100144.84;10546761;27;20527;-60
2023/12/20 23:51:17;;;;;;;18.35;2.45;;;;;;;9.56;100.00;100146.56;10542601;28;20066;-59
2023/12/20 23:56:38;;;;;;;15.70;2.97;;;;;;;9.59;100.00;100141.25;10540477;28;20040;-60
